sensor_id;sensor_type;location;lat;lon;timestamp;P1;durP1;ratioP1;P2;durP2;ratioP2
11541;SDS011;5827;49.482;7.716;2022-07-06T00:01:37;3.77;;;3.30;;
11541;SDS011;5827;49.482;7.716;2022-07-06T00:03:39;6.13;;;3.40;;
11541;SDS011;5827;49.482;7.716;2022-07-06T00:05:41;3.97;;;3.00;;
11541;SDS011;5827;49.482;7.716;2022-07-06T00:07:43;5.30;;;3.17;;
11541;SDS011;5827;49.482;7.716;2022-07-06T00:09:44;3.90;;;3.20;;
11541;SDS011;5827;49.482;7.716;2022-07-06T00:11:45;5.57;;;3.27;;
11541;SDS011;5827;49.482;7.716;2022-07-06T00:13:49;5.47;;;3.50;;
11541;SDS011;5827;49.482;7.716;2022-07-06T00:15:50;4.10;;;3.60;;
11541;SDS011;5827;49.482;7.716;2022-07-06T00:17:52;3.37;;;3.07;;
11541;SDS011;5827;49.482;7.716;2022-07-06T00:19:53;5.03;;;3.17;;
11541;SDS011;5827;49.482;7.716;2022-07-06T00:21:55;5.90;;;3.73;;
11541;SDS011;5827;49.482;7.716;2022-07-06T00:23:56;4.50;;;3.23;;
11541;SDS011;5827;49.482;7.716;2022-07-06T00:25:58;4.43;;;2.60;;
11541;SDS011;5827;49.482;7.716;2022-07-06T00:27:59;7.00;;;3.10;;
11541;SDS011;5827;49.482;7.716;2022-07-06T00:30:02;5.60;;;3.20;;
11541;SDS011;5827;49.482;7.716;2022-07-06T00:32:04;6.00;;;3.20;;
11541;SDS011;5827;49.482;7.716;2022-07-06T00:34:06;3.37;;;2.90;;
11541;SDS011;5827;49.482;7.716;2022-07-06T00:36:07;7.50;;;3.27;;
11541;SDS011;5827;49.482;7.716;2022-07-06T00:38:09;3.20;;;2.77;;
11541;SDS011;5827;49.482;7.716;2022-07-06T00:40:11;4.80;;;2.97;;
11541;SDS011;5827;49.482;7.716;2022-07-06T00:42:12;6.03;;;3.27;;
11541;SDS011;5827;49.482;7.716;2022-07-06T00:44:14;5.53;;;3.07;;
11541;SDS011;5827;49.482;7.716;2022-07-06T00:46:17;5.27;;;2.93;;
11541;SDS011;5827;49.482;7.716;2022-07-06T00:48:19;6.23;;;3.30;;
11541;SDS011;5827;49.482;7.716;2022-07-06T00:50:21;3.30;;;2.90;;
11541;SDS011;5827;49.482;7.716;2022-07-06T00:52:22;3.57;;;3.13;;
11541;SDS011;5827;49.482;7.716;2022-07-06T00:54:25;5.53;;;3.10;;
11541;SDS011;5827;49.482;7.716;2022-07-06T00:56:27;4.53;;;2.77;;
11541;SDS011;5827;49.482;7.716;2022-07-06T00:58:30;4.13;;;2.87;;
11541;SDS011;5827;49.482;7.716;2022-07-06T01:00:32;4.23;;;2.67;;
11541;SDS011;5827;49.482;7.716;2022-07-06T01:02:35;6.50;;;2.93;;
11541;SDS011;5827;49.482;7.716;2022-07-06T01:04:37;4.37;;;3.10;;
11541;SDS011;5827;49.482;7.716;2022-07-06T01:06:39;4.40;;;3.00;;
11541;SDS011;5827;49.482;7.716;2022-07-06T01:08:40;4.87;;;2.50;;
11541;SDS011;5827;49.482;7.716;2022-07-06T01:10:42;4.70;;;2.67;;
11541;SDS011;5827;49.482;7.716;2022-07-06T01:12:44;6.03;;;3.00;;
11541;SDS011;5827;49.482;7.716;2022-07-06T01:14:47;5.50;;;3.33;;
11541;SDS011;5827;49.482;7.716;2022-07-06T01:16:49;3.73;;;2.87;;
11541;SDS011;5827;49.482;7.716;2022-07-06T01:18:53;3.47;;;3.00;;
11541;SDS011;5827;49.482;7.716;2022-07-06T01:21:06;4.77;;;3.00;;
11541;SDS011;5827;49.482;7.716;2022-07-06T01:23:08;3.70;;;3.10;;
11541;SDS011;5827;49.482;7.716;2022-07-06T01:25:10;4.57;;;3.00;;
11541;SDS011;5827;49.482;7.716;2022-07-06T01:27:12;5.83;;;2.80;;
11541;SDS011;5827;49.482;7.716;2022-07-06T01:29:13;4.03;;;2.70;;
11541;SDS011;5827;49.482;7.716;2022-07-06T01:31:15;4.70;;;3.00;;
11541;SDS011;5827;49.482;7.716;2022-07-06T01:33:19;5.43;;;2.80;;
11541;SDS011;5827;49.482;7.716;2022-07-06T01:35:21;3.27;;;2.60;;
11541;SDS011;5827;49.482;7.716;2022-07-06T01:37:25;5.83;;;3.40;;
11541;SDS011;5827;49.482;7.716;2022-07-06T01:39:27;5.73;;;3.00;;
11541;SDS011;5827;49.482;7.716;2022-07-06T01:41:28;3.53;;;2.63;;
11541;SDS011;5827;49.482;7.716;2022-07-06T01:43:30;5.07;;;2.90;;
11541;SDS011;5827;49.482;7.716;2022-07-06T01:45:32;8.87;;;2.80;;
11541;SDS011;5827;49.482;7.716;2022-07-06T01:47:33;4.83;;;2.83;;
11541;SDS011;5827;49.482;7.716;2022-07-06T01:49:35;3.73;;;2.97;;
11541;SDS011;5827;49.482;7.716;2022-07-06T01:51:36;5.47;;;3.13;;
11541;SDS011;5827;49.482;7.716;2022-07-06T01:53:39;5.87;;;3.10;;
11541;SDS011;5827;49.482;7.716;2022-07-06T01:55:41;7.07;;;3.23;;
11541;SDS011;5827;49.482;7.716;2022-07-06T01:57:43;4.87;;;3.00;;
11541;SDS011;5827;49.482;7.716;2022-07-06T01:59:44;2.93;;;2.47;;
11541;SDS011;5827;49.482;7.716;2022-07-06T02:01:46;5.20;;;3.13;;
11541;SDS011;5827;49.482;7.716;2022-07-06T02:03:47;4.00;;;3.23;;
11541;SDS011;5827;49.482;7.716;2022-07-06T02:05:49;5.17;;;3.30;;
11541;SDS011;5827;49.482;7.716;2022-07-06T02:07:51;4.77;;;2.97;;
11541;SDS011;5827;49.482;7.716;2022-07-06T02:09:54;4.67;;;3.13;;
11541;SDS011;5827;49.482;7.716;2022-07-06T02:11:56;4.23;;;3.13;;
11541;SDS011;5827;49.482;7.716;2022-07-06T02:13:57;6.60;;;3.50;;
11541;SDS011;5827;49.482;7.716;2022-07-06T02:15:59;4.07;;;3.17;;
11541;SDS011;5827;49.482;7.716;2022-07-06T02:18:00;3.37;;;2.87;;
11541;SDS011;5827;49.482;7.716;2022-07-06T02:20:02;3.53;;;3.00;;
11541;SDS011;5827;49.482;7.716;2022-07-06T02:22:05;7.83;;;3.27;;
11541;SDS011;5827;49.482;7.716;2022-07-06T02:24:06;4.67;;;2.73;;
11541;SDS011;5827;49.482;7.716;2022-07-06T02:26:09;4.80;;;2.97;;
11541;SDS011;5827;49.482;7.716;2022-07-06T02:28:11;6.17;;;3.23;;
11541;SDS011;5827;49.482;7.716;2022-07-06T02:30:12;3.60;;;2.97;;
11541;SDS011;5827;49.482;7.716;2022-07-06T02:32:14;4.97;;;2.80;;
11541;SDS011;5827;49.482;7.716;2022-07-06T02:34:15;5.83;;;3.03;;
11541;SDS011;5827;49.482;7.716;2022-07-06T02:36:16;4.30;;;2.70;;
11541;SDS011;5827;49.482;7.716;2022-07-06T02:38:18;2.80;;;2.60;;
11541;SDS011;5827;49.482;7.716;2022-07-06T02:40:20;4.27;;;2.60;;
11541;SDS011;5827;49.482;7.716;2022-07-06T02:42:23;3.87;;;2.53;;
11541;SDS011;5827;49.482;7.716;2022-07-06T02:44:24;2.70;;;2.20;;
11541;SDS011;5827;49.482;7.716;2022-07-06T02:46:25;4.40;;;2.50;;
11541;SDS011;5827;49.482;7.716;2022-07-06T02:48:27;3.67;;;2.30;;
11541;SDS011;5827;49.482;7.716;2022-07-06T02:50:28;3.10;;;2.50;;
11541;SDS011;5827;49.482;7.716;2022-07-06T02:52:30;6.37;;;2.73;;
11541;SDS011;5827;49.482;7.716;2022-07-06T02:54:31;3.87;;;2.40;;
11541;SDS011;5827;49.482;7.716;2022-07-06T02:56:33;4.70;;;2.67;;
11541;SDS011;5827;49.482;7.716;2022-07-06T02:58:36;3.70;;;2.70;;
11541;SDS011;5827;49.482;7.716;2022-07-06T03:00:37;4.43;;;2.70;;
11541;SDS011;5827;49.482;7.716;2022-07-06T03:02:39;4.60;;;3.07;;
11541;SDS011;5827;49.482;7.716;2022-07-06T03:04:40;5.50;;;2.90;;
11541;SDS011;5827;49.482;7.716;2022-07-06T03:06:42;6.13;;;3.70;;
11541;SDS011;5827;49.482;7.716;2022-07-06T03:08:43;4.17;;;3.00;;
11541;SDS011;5827;49.482;7.716;2022-07-06T03:10:45;4.83;;;3.00;;
11541;SDS011;5827;49.482;7.716;2022-07-06T03:12:46;4.93;;;3.10;;
11541;SDS011;5827;49.482;7.716;2022-07-06T03:14:49;7.40;;;2.93;;
11541;SDS011;5827;49.482;7.716;2022-07-06T03:16:50;3.83;;;3.10;;
11541;SDS011;5827;49.482;7.716;2022-07-06T03:18:52;3.77;;;3.20;;
11541;SDS011;5827;49.482;7.716;2022-07-06T03:20:53;4.40;;;3.40;;
11541;SDS011;5827;49.482;7.716;2022-07-06T03:22:55;5.30;;;3.37;;
11541;SDS011;5827;49.482;7.716;2022-07-06T03:24:56;5.60;;;3.27;;
11541;SDS011;5827;49.482;7.716;2022-07-06T03:26:58;3.97;;;3.47;;
11541;SDS011;5827;49.482;7.716;2022-07-06T03:29:00;4.40;;;3.50;;
11541;SDS011;5827;49.482;7.716;2022-07-06T03:31:02;3.90;;;3.50;;
11541;SDS011;5827;49.482;7.716;2022-07-06T03:33:04;7.40;;;3.17;;
11541;SDS011;5827;49.482;7.716;2022-07-06T03:35:06;4.67;;;3.20;;
11541;SDS011;5827;49.482;7.716;2022-07-06T03:37:08;6.80;;;3.53;;
11541;SDS011;5827;49.482;7.716;2022-07-06T03:39:09;5.30;;;3.17;;
11541;SDS011;5827;49.482;7.716;2022-07-06T03:41:11;3.73;;;3.00;;
11541;SDS011;5827;49.482;7.716;2022-07-06T03:43:12;6.17;;;3.03;;
11541;SDS011;5827;49.482;7.716;2022-07-06T03:45:14;4.43;;;3.30;;
11541;SDS011;5827;49.482;7.716;2022-07-06T03:47:16;4.03;;;3.30;;
11541;SDS011;5827;49.482;7.716;2022-07-06T03:49:18;7.17;;;3.73;;
11541;SDS011;5827;49.482;7.716;2022-07-06T03:51:20;4.30;;;3.33;;
11541;SDS011;5827;49.482;7.716;2022-07-06T03:53:21;4.97;;;3.50;;
11541;SDS011;5827;49.482;7.716;2022-07-06T03:55:23;3.40;;;3.00;;
11541;SDS011;5827;49.482;7.716;2022-07-06T03:57:24;4.07;;;3.20;;
11541;SDS011;5827;49.482;7.716;2022-07-06T03:59:26;6.20;;;3.27;;
11541;SDS011;5827;49.482;7.716;2022-07-06T04:01:28;3.73;;;3.30;;
11541;SDS011;5827;49.482;7.716;2022-07-06T04:03:32;4.60;;;3.10;;
11541;SDS011;5827;49.482;7.716;2022-07-06T04:05:33;3.60;;;3.10;;
11541;SDS011;5827;49.482;7.716;2022-07-06T04:07:35;7.23;;;3.23;;
11541;SDS011;5827;49.482;7.716;2022-07-06T04:09:36;4.90;;;3.37;;
11541;SDS011;5827;49.482;7.716;2022-07-06T04:11:38;5.13;;;3.13;;
11541;SDS011;5827;49.482;7.716;2022-07-06T04:13:39;6.70;;;2.90;;
11541;SDS011;5827;49.482;7.716;2022-07-06T04:15:40;3.87;;;3.10;;
11541;SDS011;5827;49.482;7.716;2022-07-06T04:17:42;7.80;;;3.23;;
11541;SDS011;5827;49.482;7.716;2022-07-06T04:19:54;5.57;;;3.40;;
11541;SDS011;5827;49.482;7.716;2022-07-06T04:21:55;5.20;;;3.17;;
11541;SDS011;5827;49.482;7.716;2022-07-06T04:23:57;4.73;;;3.20;;
11541;SDS011;5827;49.482;7.716;2022-07-06T04:25:58;6.87;;;3.43;;
11541;SDS011;5827;49.482;7.716;2022-07-06T04:28:00;4.77;;;3.03;;
11541;SDS011;5827;49.482;7.716;2022-07-06T04:30:02;4.50;;;3.00;;
11541;SDS011;5827;49.482;7.716;2022-07-06T04:32:04;3.83;;;2.80;;
11541;SDS011;5827;49.482;7.716;2022-07-06T04:34:06;8.00;;;3.30;;
11541;SDS011;5827;49.482;7.716;2022-07-06T04:36:09;5.70;;;3.10;;
11541;SDS011;5827;49.482;7.716;2022-07-06T04:38:10;4.30;;;3.30;;
11541;SDS011;5827;49.482;7.716;2022-07-06T04:40:12;3.87;;;3.30;;
11541;SDS011;5827;49.482;7.716;2022-07-06T04:42:14;5.93;;;3.30;;
11541;SDS011;5827;49.482;7.716;2022-07-06T04:44:15;4.87;;;3.07;;
11541;SDS011;5827;49.482;7.716;2022-07-06T04:46:17;6.70;;;3.10;;
11541;SDS011;5827;49.482;7.716;2022-07-06T04:48:19;6.60;;;2.90;;
11541;SDS011;5827;49.482;7.716;2022-07-06T04:50:21;5.10;;;2.83;;
11541;SDS011;5827;49.482;7.716;2022-07-06T04:52:23;5.07;;;2.70;;
11541;SDS011;5827;49.482;7.716;2022-07-06T04:54:25;5.10;;;2.50;;
11541;SDS011;5827;49.482;7.716;2022-07-06T04:56:26;4.83;;;2.77;;
11541;SDS011;5827;49.482;7.716;2022-07-06T04:58:28;3.93;;;2.47;;
11541;SDS011;5827;49.482;7.716;2022-07-06T05:00:29;5.67;;;2.70;;
11541;SDS011;5827;49.482;7.716;2022-07-06T05:02:31;5.43;;;2.70;;
11541;SDS011;5827;49.482;7.716;2022-07-06T05:04:33;3.80;;;2.47;;
11541;SDS011;5827;49.482;7.716;2022-07-06T05:06:34;5.67;;;2.60;;
11541;SDS011;5827;49.482;7.716;2022-07-06T05:08:37;5.07;;;2.73;;
11541;SDS011;5827;49.482;7.716;2022-07-06T05:10:39;4.60;;;2.53;;
11541;SDS011;5827;49.482;7.716;2022-07-06T05:12:41;3.63;;;2.40;;
11541;SDS011;5827;49.482;7.716;2022-07-06T05:14:42;4.13;;;2.50;;
11541;SDS011;5827;49.482;7.716;2022-07-06T05:16:43;5.70;;;2.53;;
11541;SDS011;5827;49.482;7.716;2022-07-06T05:18:45;7.37;;;2.50;;
11541;SDS011;5827;49.482;7.716;2022-07-06T05:20:46;3.93;;;2.30;;
11541;SDS011;5827;49.482;7.716;2022-07-06T05:22:48;3.27;;;2.20;;
11541;SDS011;5827;49.482;7.716;2022-07-06T05:24:51;2.97;;;2.30;;
11541;SDS011;5827;49.482;7.716;2022-07-06T05:26:52;5.03;;;2.07;;
11541;SDS011;5827;49.482;7.716;2022-07-06T05:28:54;4.03;;;2.20;;
11541;SDS011;5827;49.482;7.716;2022-07-06T05:30:56;4.83;;;2.23;;
11541;SDS011;5827;49.482;7.716;2022-07-06T05:32:58;3.23;;;2.20;;
11541;SDS011;5827;49.482;7.716;2022-07-06T05:34:59;2.97;;;1.93;;
11541;SDS011;5827;49.482;7.716;2022-07-06T05:37:01;3.53;;;1.73;;
11541;SDS011;5827;49.482;7.716;2022-07-06T05:39:02;7.33;;;2.10;;
11541;SDS011;5827;49.482;7.716;2022-07-06T05:41:05;3.00;;;2.20;;
11541;SDS011;5827;49.482;7.716;2022-07-06T05:43:07;3.63;;;1.63;;
11541;SDS011;5827;49.482;7.716;2022-07-06T05:45:08;4.10;;;2.03;;
11541;SDS011;5827;49.482;7.716;2022-07-06T05:47:10;5.17;;;1.77;;
11541;SDS011;5827;49.482;7.716;2022-07-06T05:49:25;4.40;;;1.93;;
11541;SDS011;5827;49.482;7.716;2022-07-06T05:51:45;2.97;;;1.67;;
11541;SDS011;5827;49.482;7.716;2022-07-06T05:53:46;3.63;;;1.73;;
11541;SDS011;5827;49.482;7.716;2022-07-06T05:55:48;4.50;;;1.80;;
11541;SDS011;5827;49.482;7.716;2022-07-06T05:57:51;4.80;;;2.07;;
11541;SDS011;5827;49.482;7.716;2022-07-06T05:59:53;3.40;;;1.87;;
11541;SDS011;5827;49.482;7.716;2022-07-06T06:01:55;2.93;;;1.93;;
11541;SDS011;5827;49.482;7.716;2022-07-06T06:03:56;3.57;;;2.30;;
11541;SDS011;5827;49.482;7.716;2022-07-06T06:05:59;3.10;;;2.03;;
11541;SDS011;5827;49.482;7.716;2022-07-06T06:08:01;4.80;;;1.97;;
11541;SDS011;5827;49.482;7.716;2022-07-06T06:10:03;2.83;;;1.97;;
11541;SDS011;5827;49.482;7.716;2022-07-06T06:12:07;4.83;;;2.17;;
11541;SDS011;5827;49.482;7.716;2022-07-06T06:14:10;1.90;;;1.80;;
11541;SDS011;5827;49.482;7.716;2022-07-06T06:16:11;3.17;;;1.70;;
11541;SDS011;5827;49.482;7.716;2022-07-06T06:18:13;4.27;;;1.97;;
11541;SDS011;5827;49.482;7.716;2022-07-06T06:20:16;3.93;;;1.93;;
11541;SDS011;5827;49.482;7.716;2022-07-06T06:22:18;2.53;;;1.50;;
11541;SDS011;5827;49.482;7.716;2022-07-06T06:24:19;3.27;;;1.90;;
11541;SDS011;5827;49.482;7.716;2022-07-06T06:26:24;5.00;;;2.10;;
11541;SDS011;5827;49.482;7.716;2022-07-06T06:28:25;3.17;;;1.90;;
11541;SDS011;5827;49.482;7.716;2022-07-06T06:30:28;4.33;;;1.80;;
11541;SDS011;5827;49.482;7.716;2022-07-06T06:32:29;4.93;;;1.90;;
11541;SDS011;5827;49.482;7.716;2022-07-06T06:34:31;4.60;;;1.93;;
11541;SDS011;5827;49.482;7.716;2022-07-06T06:36:32;3.10;;;2.77;;
11541;SDS011;5827;49.482;7.716;2022-07-06T06:38:34;3.87;;;1.93;;
11541;SDS011;5827;49.482;7.716;2022-07-06T06:40:35;3.83;;;2.40;;
11541;SDS011;5827;49.482;7.716;2022-07-06T06:42:37;6.27;;;2.00;;
11541;SDS011;5827;49.482;7.716;2022-07-06T06:44:39;3.57;;;2.17;;
11541;SDS011;5827;49.482;7.716;2022-07-06T06:46:42;2.97;;;2.27;;
11541;SDS011;5827;49.482;7.716;2022-07-06T06:48:43;4.70;;;2.17;;
11541;SDS011;5827;49.482;7.716;2022-07-06T06:50:45;2.17;;;2.00;;
11541;SDS011;5827;49.482;7.716;2022-07-06T06:52:47;4.93;;;2.20;;
11541;SDS011;5827;49.482;7.716;2022-07-06T06:54:48;5.03;;;2.33;;
11541;SDS011;5827;49.482;7.716;2022-07-06T06:56:50;6.40;;;2.30;;
11541;SDS011;5827;49.482;7.716;2022-07-06T06:58:51;5.40;;;2.30;;
11541;SDS011;5827;49.482;7.716;2022-07-06T07:00:53;5.50;;;2.20;;
11541;SDS011;5827;49.482;7.716;2022-07-06T07:02:56;3.93;;;2.60;;
11541;SDS011;5827;49.482;7.716;2022-07-06T07:04:58;3.30;;;2.23;;
11541;SDS011;5827;49.482;7.716;2022-07-06T07:06:59;4.47;;;2.30;;
11541;SDS011;5827;49.482;7.716;2022-07-06T07:09:01;3.80;;;2.23;;
11541;SDS011;5827;49.482;7.716;2022-07-06T07:11:02;4.10;;;2.10;;
11541;SDS011;5827;49.482;7.716;2022-07-06T07:13:04;3.77;;;2.23;;
11541;SDS011;5827;49.482;7.716;2022-07-06T07:15:05;3.10;;;1.80;;
11541;SDS011;5827;49.482;7.716;2022-07-06T07:17:07;4.03;;;2.10;;
11541;SDS011;5827;49.482;7.716;2022-07-06T07:19:10;3.57;;;2.30;;
11541;SDS011;5827;49.482;7.716;2022-07-06T07:21:12;3.53;;;1.90;;
11541;SDS011;5827;49.482;7.716;2022-07-06T07:23:13;3.53;;;2.20;;
11541;SDS011;5827;49.482;7.716;2022-07-06T07:25:15;4.70;;;2.40;;
11541;SDS011;5827;49.482;7.716;2022-07-06T07:27:17;5.27;;;2.00;;
11541;SDS011;5827;49.482;7.716;2022-07-06T07:29:18;2.40;;;1.90;;
11541;SDS011;5827;49.482;7.716;2022-07-06T07:31:20;3.10;;;1.93;;
11541;SDS011;5827;49.482;7.716;2022-07-06T07:33:21;5.03;;;2.30;;
11541;SDS011;5827;49.482;7.716;2022-07-06T07:35:24;3.60;;;2.20;;
11541;SDS011;5827;49.482;7.716;2022-07-06T07:37:25;3.07;;;2.07;;
11541;SDS011;5827;49.482;7.716;2022-07-06T07:39:27;4.90;;;2.43;;
11541;SDS011;5827;49.482;7.716;2022-07-06T07:41:28;3.13;;;1.97;;
11541;SDS011;5827;49.482;7.716;2022-07-06T07:43:31;4.10;;;1.67;;
11541;SDS011;5827;49.482;7.716;2022-07-06T07:45:32;3.43;;;2.00;;
11541;SDS011;5827;49.482;7.716;2022-07-06T07:47:34;4.23;;;1.83;;
11541;SDS011;5827;49.482;7.716;2022-07-06T07:49:36;4.63;;;2.20;;
11541;SDS011;5827;49.482;7.716;2022-07-06T07:51:39;4.50;;;2.30;;
11541;SDS011;5827;49.482;7.716;2022-07-06T07:53:41;4.57;;;2.00;;
11541;SDS011;5827;49.482;7.716;2022-07-06T07:55:43;2.73;;;2.00;;
11541;SDS011;5827;49.482;7.716;2022-07-06T07:57:44;2.83;;;1.93;;
11541;SDS011;5827;49.482;7.716;2022-07-06T07:59:46;3.07;;;1.77;;
11541;SDS011;5827;49.482;7.716;2022-07-06T08:01:47;2.40;;;1.77;;
11541;SDS011;5827;49.482;7.716;2022-07-06T08:03:49;3.03;;;1.80;;
11541;SDS011;5827;49.482;7.716;2022-07-06T08:05:50;3.30;;;1.87;;
11541;SDS011;5827;49.482;7.716;2022-07-06T08:07:54;3.57;;;2.00;;
11541;SDS011;5827;49.482;7.716;2022-07-06T08:09:55;2.17;;;1.90;;
11541;SDS011;5827;49.482;7.716;2022-07-06T08:11:57;2.43;;;1.90;;
11541;SDS011;5827;49.482;7.716;2022-07-06T08:13:59;2.07;;;1.90;;
11541;SDS011;5827;49.482;7.716;2022-07-06T08:16:00;2.40;;;1.80;;
11541;SDS011;5827;49.482;7.716;2022-07-06T08:18:02;2.80;;;1.63;;
11541;SDS011;5827;49.482;7.716;2022-07-06T08:20:04;2.47;;;1.90;;
11541;SDS011;5827;49.482;7.716;2022-07-06T08:22:06;3.43;;;2.00;;
11541;SDS011;5827;49.482;7.716;2022-07-06T08:24:09;4.33;;;2.13;;
11541;SDS011;5827;49.482;7.716;2022-07-06T08:26:11;5.13;;;1.80;;
11541;SDS011;5827;49.482;7.716;2022-07-06T08:28:13;4.43;;;1.70;;
11541;SDS011;5827;49.482;7.716;2022-07-06T08:30:14;2.27;;;1.70;;
11541;SDS011;5827;49.482;7.716;2022-07-06T08:32:16;2.93;;;1.60;;
11541;SDS011;5827;49.482;7.716;2022-07-06T08:34:19;4.93;;;1.73;;
11541;SDS011;5827;49.482;7.716;2022-07-06T08:36:21;2.67;;;2.10;;
11541;SDS011;5827;49.482;7.716;2022-07-06T08:38:23;4.03;;;1.90;;
11541;SDS011;5827;49.482;7.716;2022-07-06T08:40:29;3.33;;;1.90;;
11541;SDS011;5827;49.482;7.716;2022-07-06T08:42:34;2.57;;;1.60;;
11541;SDS011;5827;49.482;7.716;2022-07-06T08:44:37;2.93;;;1.60;;
11541;SDS011;5827;49.482;7.716;2022-07-06T08:46:38;5.23;;;1.90;;
11541;SDS011;5827;49.482;7.716;2022-07-06T08:48:41;1.90;;;1.77;;
11541;SDS011;5827;49.482;7.716;2022-07-06T08:50:43;2.87;;;1.77;;
11541;SDS011;5827;49.482;7.716;2022-07-06T08:52:45;2.87;;;1.80;;
11541;SDS011;5827;49.482;7.716;2022-07-06T08:54:48;5.63;;;1.77;;
11541;SDS011;5827;49.482;7.716;2022-07-06T08:56:52;3.37;;;1.63;;
11541;SDS011;5827;49.482;7.716;2022-07-06T08:58:53;5.70;;;1.83;;
11541;SDS011;5827;49.482;7.716;2022-07-06T09:00:55;2.57;;;1.70;;
11541;SDS011;5827;49.482;7.716;2022-07-06T09:02:58;5.87;;;1.80;;
11541;SDS011;5827;49.482;7.716;2022-07-06T09:05:00;2.03;;;1.77;;
11541;SDS011;5827;49.482;7.716;2022-07-06T09:07:04;4.43;;;1.80;;
11541;SDS011;5827;49.482;7.716;2022-07-06T09:09:05;4.60;;;1.70;;
11541;SDS011;5827;49.482;7.716;2022-07-06T09:11:07;2.73;;;1.50;;
11541;SDS011;5827;49.482;7.716;2022-07-06T09:13:10;3.53;;;1.63;;
11541;SDS011;5827;49.482;7.716;2022-07-06T09:15:12;3.33;;;1.80;;
11541;SDS011;5827;49.482;7.716;2022-07-06T09:17:14;2.90;;;1.70;;
11541;SDS011;5827;49.482;7.716;2022-07-06T09:19:15;2.67;;;1.50;;
11541;SDS011;5827;49.482;7.716;2022-07-06T09:21:21;2.13;;;1.50;;
11541;SDS011;5827;49.482;7.716;2022-07-06T09:23:24;2.90;;;1.60;;
11541;SDS011;5827;49.482;7.716;2022-07-06T09:25:26;3.93;;;1.83;;
11541;SDS011;5827;49.482;7.716;2022-07-06T09:27:28;3.77;;;1.73;;
11541;SDS011;5827;49.482;7.716;2022-07-06T09:29:31;3.17;;;1.97;;
11541;SDS011;5827;49.482;7.716;2022-07-06T09:31:33;2.80;;;2.00;;
11541;SDS011;5827;49.482;7.716;2022-07-06T09:33:35;2.17;;;1.70;;
11541;SDS011;5827;49.482;7.716;2022-07-06T09:35:37;3.63;;;1.90;;
11541;SDS011;5827;49.482;7.716;2022-07-06T09:37:39;2.63;;;1.90;;
11541;SDS011;5827;49.482;7.716;2022-07-06T09:39:41;2.73;;;2.40;;
11541;SDS011;5827;49.482;7.716;2022-07-06T09:41:44;3.70;;;1.93;;
11541;SDS011;5827;49.482;7.716;2022-07-06T09:43:46;4.20;;;2.40;;
11541;SDS011;5827;49.482;7.716;2022-07-06T09:45:50;3.73;;;2.40;;
11541;SDS011;5827;49.482;7.716;2022-07-06T09:47:52;3.63;;;2.40;;
11541;SDS011;5827;49.482;7.716;2022-07-06T09:49:55;3.53;;;2.40;;
11541;SDS011;5827;49.482;7.716;2022-07-06T09:51:58;3.60;;;2.60;;
11541;SDS011;5827;49.482;7.716;2022-07-06T09:54:03;6.43;;;2.60;;
11541;SDS011;5827;49.482;7.716;2022-07-06T09:56:06;6.73;;;4.47;;
11541;SDS011;5827;49.482;7.716;2022-07-06T09:58:08;4.07;;;2.70;;
11541;SDS011;5827;49.482;7.716;2022-07-06T10:00:10;5.20;;;2.90;;
11541;SDS011;5827;49.482;7.716;2022-07-06T10:02:14;3.63;;;3.33;;
11541;SDS011;5827;49.482;7.716;2022-07-06T10:04:16;4.00;;;3.10;;
11541;SDS011;5827;49.482;7.716;2022-07-06T10:06:20;3.53;;;3.23;;
11541;SDS011;5827;49.482;7.716;2022-07-06T10:08:21;3.47;;;3.17;;
11541;SDS011;5827;49.482;7.716;2022-07-06T10:10:24;5.40;;;3.67;;
11541;SDS011;5827;49.482;7.716;2022-07-06T10:12:26;5.00;;;3.37;;
11541;SDS011;5827;49.482;7.716;2022-07-06T10:14:29;4.57;;;3.43;;
11541;SDS011;5827;49.482;7.716;2022-07-06T10:16:31;3.40;;;3.10;;
11541;SDS011;5827;49.482;7.716;2022-07-06T10:18:37;3.73;;;3.43;;
11541;SDS011;5827;49.482;7.716;2022-07-06T10:20:38;3.27;;;2.87;;
11541;SDS011;5827;49.482;7.716;2022-07-06T10:22:40;2.83;;;2.33;;
11541;SDS011;5827;49.482;7.716;2022-07-06T10:24:42;3.63;;;2.70;;
11541;SDS011;5827;49.482;7.716;2022-07-06T10:26:44;4.73;;;2.70;;
11541;SDS011;5827;49.482;7.716;2022-07-06T10:28:49;3.47;;;2.80;;
11541;SDS011;5827;49.482;7.716;2022-07-06T10:30:52;3.87;;;2.80;;
11541;SDS011;5827;49.482;7.716;2022-07-06T10:32:55;4.77;;;2.63;;
11541;SDS011;5827;49.482;7.716;2022-07-06T10:35:01;2.80;;;2.60;;
11541;SDS011;5827;49.482;7.716;2022-07-06T10:37:03;2.90;;;2.50;;
11541;SDS011;5827;49.482;7.716;2022-07-06T10:39:07;3.50;;;2.47;;
11541;SDS011;5827;49.482;7.716;2022-07-06T10:41:32;2.67;;;2.47;;
11541;SDS011;5827;49.482;7.716;2022-07-06T10:43:36;2.20;;;2.00;;
11541;SDS011;5827;49.482;7.716;2022-07-06T10:45:49;2.43;;;2.03;;
11541;SDS011;5827;49.482;7.716;2022-07-06T10:50:19;2.33;;;2.03;;
11541;SDS011;5827;49.482;7.716;2022-07-06T10:52:21;2.07;;;1.97;;
11541;SDS011;5827;49.482;7.716;2022-07-06T10:54:23;2.33;;;1.80;;
11541;SDS011;5827;49.482;7.716;2022-07-06T10:56:31;4.90;;;1.90;;
11541;SDS011;5827;49.482;7.716;2022-07-06T10:58:37;2.47;;;2.00;;
11541;SDS011;5827;49.482;7.716;2022-07-06T11:00:50;2.60;;;1.63;;
11541;SDS011;5827;49.482;7.716;2022-07-06T11:02:52;2.53;;;1.80;;
11541;SDS011;5827;49.482;7.716;2022-07-06T11:04:53;2.83;;;2.13;;
11541;SDS011;5827;49.482;7.716;2022-07-06T11:06:57;2.87;;;1.80;;
11541;SDS011;5827;49.482;7.716;2022-07-06T11:09:08;2.47;;;1.80;;
11541;SDS011;5827;49.482;7.716;2022-07-06T11:11:11;2.80;;;1.63;;
11541;SDS011;5827;49.482;7.716;2022-07-06T11:13:26;3.00;;;1.70;;
11541;SDS011;5827;49.482;7.716;2022-07-06T11:15:46;2.83;;;1.83;;
11541;SDS011;5827;49.482;7.716;2022-07-06T11:18:01;1.97;;;1.77;;
11541;SDS011;5827;49.482;7.716;2022-07-06T11:20:12;2.93;;;1.80;;
11541;SDS011;5827;49.482;7.716;2022-07-06T11:22:15;2.33;;;1.67;;
11541;SDS011;5827;49.482;7.716;2022-07-06T11:24:19;2.20;;;1.80;;
11541;SDS011;5827;49.482;7.716;2022-07-06T11:26:21;2.67;;;1.67;;
11541;SDS011;5827;49.482;7.716;2022-07-06T11:28:24;2.37;;;1.77;;
11541;SDS011;5827;49.482;7.716;2022-07-06T11:30:27;3.87;;;1.60;;
11541;SDS011;5827;49.482;7.716;2022-07-06T11:32:29;2.70;;;1.90;;
11541;SDS011;5827;49.482;7.716;2022-07-06T11:34:32;2.53;;;1.87;;
11541;SDS011;5827;49.482;7.716;2022-07-06T11:36:35;1.87;;;1.70;;
11541;SDS011;5827;49.482;7.716;2022-07-06T11:38:39;1.80;;;1.70;;
11541;SDS011;5827;49.482;7.716;2022-07-06T11:40:40;2.27;;;1.70;;
11541;SDS011;5827;49.482;7.716;2022-07-06T11:42:52;2.47;;;1.97;;
11541;SDS011;5827;49.482;7.716;2022-07-06T11:44:54;2.97;;;1.80;;
11541;SDS011;5827;49.482;7.716;2022-07-06T11:46:55;2.93;;;1.87;;
11541;SDS011;5827;49.482;7.716;2022-07-06T11:49:00;2.07;;;1.70;;
11541;SDS011;5827;49.482;7.716;2022-07-06T11:51:03;3.67;;;1.60;;
11541;SDS011;5827;49.482;7.716;2022-07-06T11:53:06;3.07;;;1.77;;
11541;SDS011;5827;49.482;7.716;2022-07-06T11:55:09;2.20;;;1.83;;
11541;SDS011;5827;49.482;7.716;2022-07-06T11:57:15;2.83;;;1.80;;
11541;SDS011;5827;49.482;7.716;2022-07-06T11:59:20;2.80;;;1.90;;
11541;SDS011;5827;49.482;7.716;2022-07-06T12:01:24;1.80;;;1.70;;
11541;SDS011;5827;49.482;7.716;2022-07-06T12:03:27;2.17;;;1.57;;
11541;SDS011;5827;49.482;7.716;2022-07-06T12:05:29;1.67;;;1.50;;
11541;SDS011;5827;49.482;7.716;2022-07-06T12:07:30;1.83;;;1.60;;
11541;SDS011;5827;49.482;7.716;2022-07-06T12:09:32;3.13;;;1.90;;
11541;SDS011;5827;49.482;7.716;2022-07-06T12:11:36;1.77;;;1.60;;
11541;SDS011;5827;49.482;7.716;2022-07-06T12:13:39;1.73;;;1.40;;
11541;SDS011;5827;49.482;7.716;2022-07-06T12:15:41;1.50;;;1.40;;
11541;SDS011;5827;49.482;7.716;2022-07-06T12:17:46;2.50;;;1.70;;
11541;SDS011;5827;49.482;7.716;2022-07-06T12:19:51;2.10;;;1.60;;
11541;SDS011;5827;49.482;7.716;2022-07-06T12:21:54;2.00;;;1.40;;
11541;SDS011;5827;49.482;7.716;2022-07-06T12:23:57;1.80;;;1.60;;
11541;SDS011;5827;49.482;7.716;2022-07-06T12:25:58;2.40;;;1.40;;
11541;SDS011;5827;49.482;7.716;2022-07-06T12:28:02;2.67;;;1.87;;
11541;SDS011;5827;49.482;7.716;2022-07-06T12:30:08;2.17;;;1.50;;
11541;SDS011;5827;49.482;7.716;2022-07-06T12:32:14;2.37;;;1.60;;